CheckWX is a tool to help pilots better visualize weather data.  It is not intended as a substitute for an official pre-flight weather briefing.

06:48:51 UTC

KPVU METAR
Provo Municipal Airport
Provo, Utah, USA
Current

53 mins ago

KPVU 210556Z AUTO 02005KT 10SM SCT029 BKN046 OVC085 08/05 A2977 RMK AO2 SLP060 60000 T00830050 10139 20083 50009
Observed
May-21 @ 05:56 UTC
Wind
  • 020° at 5 KTS
Visibility
10 SM
Flight Rules
VFR
Cloud Levels
  • Scattered at 2,900' AGL
  • Broken at 4,600' AGL
  • Overcast at 8,500' AGL
Temperature
C / 46°F
Dewpoint
C / 41°F
Humidity
82%
Altimeter
29.77" Hg
Pressure
1008.12 hPa
Previous

2 hours ago

KPVU 210456Z AUTO VRB03KT 10SM FEW031 SCT039 OVC060 09/03 A2978 RMK AO2 SLP065 T00890033
Observed
May-21 @ 04:56 UTC
Wind
  • Variable at 3 KTS
Visibility
10 SM
Flight Rules
VFR
Cloud Levels
  • Few at 3,100' AGL
  • Scattered at 3,900' AGL
  • Overcast at 6,000' AGL
Temperature
C / 48°F
Dewpoint
C / 37°F
Humidity
66%
Altimeter
29.78" Hg
Pressure
1008.42 hPa
Previous

3 hours ago

KPVU 210356Z AUTO 13006KT 10SM BKN050 BKN065 OVC090 09/04 A2975 RMK AO2 RAB41E51 SLP055 P0000 T00940039
Observed
May-21 @ 03:56 UTC
Wind
  • 130° at 6 KTS
Visibility
10 SM
Flight Rules
VFR
Cloud Levels
  • Broken at 5,000' AGL
  • Broken at 6,500' AGL
  • Overcast at 9,000' AGL
Temperature
C / 48°F
Dewpoint
C / 39°F
Humidity
71%
Altimeter
29.75" Hg
Pressure
1007.42 hPa
Current Rain
0.01"